createdAt,value
2023-04-11T00:02:43.354Z,-1.13
2023-04-11T00:05:47.885Z,-1.11
2023-04-11T00:08:51.009Z,-0.81
2023-04-11T00:11:54.977Z,-0.45
2023-04-11T00:14:58.556Z,0.12
2023-04-11T00:18:01.977Z,0.16
2023-04-11T00:21:06.206Z,0.48
2023-04-11T00:24:09.690Z,0.14
2023-04-11T00:27:13.320Z,-0.05
2023-04-11T00:30:17.379Z,-0.04
2023-04-11T00:33:21.067Z,1.59
2023-04-11T00:36:24.085Z,0.85
2023-04-11T00:39:31.237Z,0.38
2023-04-11T00:42:34.292Z,0.19
2023-04-11T00:45:38.040Z,-0.04
2023-04-11T00:48:42.296Z,0.19
2023-04-11T00:51:46.348Z,0.71
2023-04-11T00:54:49.361Z,1.35
2023-04-11T00:57:54.803Z,1.18
2023-04-11T01:00:57.791Z,1.78
2023-04-11T01:04:02.343Z,4.34
2023-04-11T01:07:09.491Z,5.66
2023-04-11T01:10:15.044Z,6.47
2023-04-11T01:13:18.646Z,7.17
2023-04-11T01:16:22.393Z,7.56
2023-04-11T01:19:27.364Z,8.81
2023-04-11T01:22:31.414Z,8.67
2023-04-11T01:25:38.240Z,8.65
2023-04-11T01:28:42.128Z,7.92
2023-04-11T01:31:46.268Z,7.44
2023-04-11T01:34:54.506Z,7.83
2023-04-11T01:37:59.475Z,8.15
2023-04-11T01:41:03.529Z,7.83
2023-04-11T01:44:08.853Z,7.88
2023-04-11T01:47:12.226Z,8.51
2023-04-11T01:50:15.527Z,8.14
2023-04-11T01:53:19.154Z,7.78
2023-04-11T01:56:23.134Z,7.58
2023-04-11T01:59:26.257Z,8.18
2023-04-11T02:02:30.077Z,8.90
2023-04-11T02:05:33.315Z,8.77
2023-04-11T02:08:36.440Z,8.40
2023-04-11T02:11:39.442Z,7.98
2023-04-11T02:14:44.856Z,8.31
2023-04-11T02:17:50.059Z,9.11
2023-04-11T02:20:53.667Z,8.78
2023-04-11T02:23:56.910Z,9.02
2023-04-11T02:27:02.159Z,10.07
2023-04-11T02:30:08.150Z,10.11
2023-04-11T02:33:12.714Z,10.27
2023-04-11T02:36:16.759Z,10.28
2023-04-11T02:39:25.667Z,10.14
2023-04-11T02:42:31.897Z,9.39
2023-04-11T02:45:35.719Z,9.54
2023-04-11T02:48:39.590Z,9.56
2023-04-11T02:51:42.665Z,9.21
2023-04-11T02:54:48.314Z,8.95
2023-04-11T02:57:52.581Z,9.45
2023-04-11T03:00:57.700Z,8.93
2023-04-11T03:04:01.885Z,8.70
2023-04-11T03:07:18.915Z,8.91
2023-04-11T03:10:22.112Z,8.54
2023-04-11T03:13:27.174Z,8.67
2023-04-11T03:16:31.190Z,8.31
2023-04-11T03:19:34.671Z,7.72
2023-04-11T03:22:40.182Z,7.77
2023-04-11T03:25:48.911Z,7.73
2023-04-11T03:28:55.326Z,7.13
2023-04-11T03:31:58.660Z,7.02
2023-04-11T03:35:04.430Z,6.42
2023-04-11T03:38:08.014Z,6.31
2023-04-11T03:41:11.419Z,6.32
2023-04-11T03:44:15.260Z,6.03
2023-04-11T03:47:21.501Z,5.62
2023-04-11T03:50:26.071Z,5.61
2023-04-11T03:53:34.745Z,5.99
2023-04-11T03:56:48.273Z,5.87
2023-04-11T03:59:57.542Z,5.66
2023-04-11T04:03:00.975Z,5.59
2023-04-11T04:06:05.122Z,5.96
2023-04-11T04:09:09.100Z,6.04
2023-04-11T04:12:32.721Z,6.02
2023-04-11T04:15:47.205Z,5.53
2023-04-11T04:18:51.431Z,5.43
2023-04-11T04:21:58.803Z,5.53
2023-04-11T04:25:07.815Z,5.58
2023-04-11T04:28:11.565Z,5.55
2023-04-11T04:31:21.756Z,5.33
2023-04-11T04:34:29.604Z,5.06
2023-04-11T04:37:40.355Z,4.62
2023-04-11T04:40:51.390Z,4.94
2023-04-11T04:43:55.732Z,4.90
2023-04-11T04:47:07.956Z,4.94
2023-04-11T04:50:12.127Z,4.63
2023-04-11T04:53:15.265Z,4.33
2023-04-11T04:56:23.671Z,4.33
2023-04-11T04:59:28.947Z,4.24
2023-04-11T05:02:41.193Z,4.02
2023-04-11T05:05:45.440Z,3.96
2023-04-11T05:08:49.562Z,4.15
2023-04-11T05:11:52.715Z,4.25
2023-04-11T05:14:58.633Z,4.25
2023-04-11T05:18:05.533Z,4.42
2023-04-11T05:21:11.623Z,4.35
2023-04-11T05:24:17.719Z,4.34
2023-04-11T05:27:21.381Z,4.38
2023-04-11T05:30:24.528Z,4.45
2023-04-11T05:33:27.933Z,4.42
2023-04-11T05:36:33.710Z,4.35
2023-04-11T05:39:37.849Z,4.41
2023-04-11T05:42:41.710Z,4.36
2023-04-11T05:45:48.414Z,4.23
2023-04-11T05:48:52.955Z,4.22
2023-04-11T05:51:56.872Z,4.31
2023-04-11T05:55:00.530Z,4.08
2023-04-11T05:58:03.577Z,4.09
2023-04-11T06:01:08.187Z,3.98
2023-04-11T06:04:11.947Z,4.00
2023-04-11T06:07:15.772Z,3.96
2023-04-11T06:10:19.514Z,4.00
2023-04-11T06:13:23.456Z,4.05
2023-04-11T06:16:27.107Z,4.11
2023-04-11T06:19:31.165Z,4.16
2023-04-11T06:22:35.153Z,4.39
2023-04-11T06:25:40.392Z,4.35
2023-04-11T06:28:44.071Z,4.31
2023-04-11T06:31:47.319Z,4.40
2023-04-11T06:34:50.467Z,4.58
2023-04-11T06:37:54.872Z,4.41
2023-04-11T06:40:58.897Z,4.26
2023-04-11T06:44:03.103Z,4.16
2023-04-11T06:47:06.746Z,4.29
2023-04-11T06:50:11.164Z,4.37
2023-04-11T06:53:14.883Z,4.24
2023-04-11T06:56:18.823Z,4.03
2023-04-11T06:59:23.457Z,4.07
2023-04-11T07:02:28.529Z,4.04
2023-04-11T07:05:32.247Z,3.97
2023-04-11T07:08:35.593Z,3.78
2023-04-11T07:11:39.325Z,3.76
2023-04-11T07:14:42.575Z,3.95
2023-04-11T07:17:51.407Z,4.12
2023-04-11T07:20:56.754Z,4.18
2023-04-11T07:24:01.121Z,4.20
2023-04-11T07:27:05.818Z,4.19
2023-04-11T07:30:09.498Z,4.30
2023-04-11T07:33:13.409Z,4.31
2023-04-11T07:36:17.566Z,4.18
2023-04-11T07:39:21.009Z,4.07
2023-04-11T07:42:24.667Z,4.27
2023-04-11T07:45:28.906Z,4.29
2023-04-11T07:48:32.811Z,4.32
2023-04-11T07:51:36.268Z,4.21
2023-04-11T07:54:39.669Z,4.27
2023-04-11T07:57:43.405Z,4.39
2023-04-11T08:00:48.103Z,4.12
2023-04-11T08:03:56.898Z,4.01
2023-04-11T08:07:01.018Z,4.01
2023-04-11T08:10:05.923Z,4.10
2023-04-11T08:13:09.236Z,4.19
2023-04-11T08:16:15.829Z,4.23
2023-04-11T08:19:19.478Z,4.20
2023-04-11T08:22:23.381Z,4.15
2023-04-11T08:25:26.235Z,4.01
2023-04-11T08:28:30.247Z,4.02
2023-04-11T08:31:33.875Z,4.09
2023-04-11T08:34:37.463Z,4.00
2023-04-11T08:37:40.585Z,4.07
2023-04-11T08:40:44.424Z,4.01
2023-04-11T08:43:48.574Z,3.95
2023-04-11T08:46:51.959Z,3.92
2023-04-11T08:49:55.224Z,3.94
2023-04-11T08:53:04.465Z,3.88
2023-04-11T08:56:15.756Z,3.88
2023-04-11T08:59:18.700Z,3.91
2023-04-11T09:02:21.941Z,3.82
2023-04-11T09:05:29.364Z,3.83
2023-04-11T09:08:39.927Z,3.74
2023-04-11T09:11:54.812Z,3.70
2023-04-11T09:14:57.758Z,3.68
2023-04-11T09:18:01.805Z,3.75
2023-04-11T09:21:07.467Z,3.78
2023-04-11T09:24:17.751Z,3.77
2023-04-11T09:27:24.965Z,3.75
2023-04-11T09:30:28.906Z,3.54
2023-04-11T09:33:32.704Z,3.53
2023-04-11T09:36:36.230Z,3.52
2023-04-11T09:39:39.369Z,3.47
2023-04-11T09:42:43.178Z,3.43
2023-04-11T09:45:54.203Z,3.50
2023-04-11T09:48:58.230Z,3.65
2023-04-11T09:52:02.609Z,3.59
2023-04-11T09:55:08.919Z,3.52
2023-04-11T09:58:13.387Z,3.68
2023-04-11T10:01:20.872Z,3.76
2023-04-11T10:04:23.948Z,3.46
2023-04-11T10:07:30.810Z,3.29
2023-04-11T10:10:33.872Z,3.24
2023-04-11T10:13:46.470Z,3.16
2023-04-11T10:17:21.320Z,3.08
2023-04-11T10:20:50.585Z,3.00
2023-04-11T10:24:15.702Z,3.01
2023-04-11T10:28:05.114Z,3.17
2023-04-11T10:31:14.651Z,3.28
2023-04-11T10:34:17.705Z,2.92
2023-04-11T10:37:40.888Z,2.78
2023-04-11T10:41:18.923Z,2.89
2023-04-11T10:44:22.057Z,2.70
2023-04-11T10:47:27.130Z,2.56
2023-04-11T10:50:40.717Z,2.50
2023-04-11T10:53:47.762Z,2.41
2023-04-11T10:56:55.835Z,2.29
2023-04-11T10:59:59.496Z,2.20
2023-04-11T11:03:03.553Z,2.06
2023-04-11T11:06:14.418Z,1.99
2023-04-11T11:09:24.247Z,1.89
2023-04-11T11:12:27.849Z,1.76
2023-04-11T11:15:32.219Z,1.65
2023-04-11T11:18:37.195Z,1.53
2023-04-11T11:21:40.895Z,1.49
2023-04-11T11:24:44.973Z,1.47
2023-04-11T11:27:48.777Z,1.39
2023-04-11T11:30:57.640Z,1.27
2023-04-11T11:34:18.489Z,1.18
2023-04-11T11:37:25.984Z,1.11
2023-04-11T11:40:30.776Z,0.98
2023-04-11T11:43:37.910Z,0.87
2023-04-11T11:47:13.077Z,0.87
2023-04-11T11:50:32.056Z,0.77
2023-04-11T11:53:35.099Z,0.75
2023-04-11T11:56:39.102Z,0.73
2023-04-11T11:59:43.258Z,0.69
2023-04-11T12:02:46.858Z,0.64
2023-04-11T12:05:53.416Z,0.61
2023-04-11T12:12:39.058Z,0.57
2023-04-11T12:15:44.190Z,0.48
2023-04-11T12:18:47.295Z,0.41
2023-04-11T12:21:51.384Z,0.34
2023-04-11T12:25:11.701Z,0.32
2023-04-11T12:28:15.841Z,0.23
2023-04-11T12:31:21.204Z,0.19
2023-04-11T12:34:25.065Z,0.18
2023-04-11T12:37:28.250Z,0.14
2023-04-11T12:41:13.952Z,0.11
2023-04-11T12:44:18.975Z,-0.01
2023-04-11T12:47:22.071Z,-0.01
2023-04-11T12:50:25.143Z,-0.08
2023-04-11T12:53:28.122Z,-0.11
2023-04-11T12:56:31.243Z,-0.15
2023-04-11T12:59:34.198Z,-0.14
2023-04-11T13:02:43.272Z,-0.20
2023-04-11T13:05:47.361Z,-0.24
2023-04-11T13:08:50.271Z,-0.26
2023-04-11T13:11:53.978Z,-0.31
2023-04-11T13:14:57.656Z,-0.38
2023-04-11T13:18:00.699Z,-0.45
2023-04-11T13:21:03.791Z,-0.55
2023-04-11T13:24:08.000Z,-0.56
2023-04-11T13:27:12.064Z,-0.54
2023-04-11T13:30:16.313Z,-0.49
2023-04-11T13:33:20.001Z,-0.45
2023-04-11T13:36:23.969Z,-0.47
2023-04-11T13:39:28.102Z,-0.54
2023-04-11T13:42:31.992Z,-0.51
2023-04-11T13:45:35.739Z,-0.51
2023-04-11T13:48:39.468Z,-0.52
2023-04-11T13:51:43.215Z,-0.57
2023-04-11T13:54:46.873Z,-0.67
2023-04-11T13:57:51.043Z,-0.69
2023-04-11T14:00:54.836Z,-0.67
2023-04-11T14:03:59.499Z,-0.69
2023-04-11T14:07:02.708Z,-0.82
2023-04-11T14:10:06.753Z,-0.87
2023-04-11T14:13:11.699Z,-0.92
2023-04-11T14:16:14.724Z,-0.99
2023-04-11T14:19:18.506Z,-1.09
2023-04-11T14:22:21.747Z,-1.16
2023-04-11T14:25:25.097Z,-1.23
2023-04-11T14:28:29.053Z,-1.21
2023-04-11T14:31:33.376Z,-1.22
2023-04-11T14:34:36.414Z,-1.20
2023-04-11T14:37:40.106Z,-1.13
2023-04-11T14:40:44.720Z,-1.15
2023-04-11T14:43:48.709Z,-1.17
2023-04-11T14:46:52.502Z,-1.18
2023-04-11T14:49:57.907Z,-1.31
2023-04-11T14:53:01.538Z,-1.45
2023-04-11T14:56:08.195Z,-1.45
2023-04-11T14:59:12.085Z,-1.45
2023-04-11T15:02:15.856Z,-1.57
2023-04-11T15:05:20.246Z,-1.69
2023-04-11T15:08:24.011Z,-1.92
2023-04-11T15:11:28.046Z,-2.09
2023-04-11T15:14:30.941Z,-2.14
2023-04-11T15:17:40.605Z,-2.27
2023-04-11T15:20:43.732Z,-2.40
2023-04-11T15:23:47.798Z,-2.45
2023-04-11T15:26:51.376Z,-2.53
2023-04-11T15:29:56.505Z,-2.52
2023-04-11T15:32:59.556Z,-2.56
2023-04-11T15:36:02.925Z,-2.62
2023-04-11T15:39:06.737Z,-2.61
2023-04-11T15:42:09.745Z,-2.58
2023-04-11T15:45:13.547Z,-2.61
2023-04-11T15:48:17.581Z,-2.67
2023-04-11T15:51:21.326Z,-2.64
2023-04-11T15:54:24.858Z,-2.61
2023-04-11T15:57:29.206Z,-2.60
2023-04-11T16:00:33.027Z,-2.57
2023-04-11T16:03:36.668Z,-2.58
2023-04-11T16:06:40.387Z,-2.62
2023-04-11T16:09:44.537Z,-2.67
2023-04-11T16:12:47.599Z,-2.66
2023-04-11T16:15:50.494Z,-2.66
2023-04-11T16:18:54.197Z,-2.61
2023-04-11T16:21:57.894Z,-2.58
2023-04-11T16:25:04.471Z,-2.55
2023-04-11T16:28:08.236Z,-2.53
2023-04-11T16:31:11.762Z,-2.51
2023-04-11T16:34:15.288Z,-2.51
2023-04-11T16:37:18.726Z,-2.53
2023-04-11T16:40:22.302Z,-2.58
2023-04-11T16:43:25.239Z,-2.63
2023-04-11T16:46:28.183Z,-2.67
2023-04-11T16:49:32.585Z,-2.70
2023-04-11T16:52:36.438Z,-2.69
2023-04-11T16:55:40.415Z,-2.67
2023-04-11T16:58:43.545Z,-2.68
2023-04-11T17:01:47.818Z,-2.69
2023-04-11T17:04:51.872Z,-2.68
2023-04-11T17:07:55.049Z,-2.71
2023-04-11T17:11:09.605Z,-2.78
2023-04-11T17:14:13.406Z,-2.85
2023-04-11T17:17:17.069Z,-2.89
2023-04-11T17:20:22.442Z,-2.99
2023-04-11T17:23:38.982Z,-3.11
2023-04-11T17:26:46.023Z,-3.17
2023-04-11T17:29:49.113Z,-3.23
2023-04-11T17:32:55.720Z,-3.29
2023-04-11T17:35:59.744Z,-3.32
2023-04-11T17:39:02.705Z,-3.23
2023-04-11T17:42:07.397Z,-3.20
2023-04-11T17:45:18.633Z,-3.34
2023-04-11T17:48:23.915Z,-3.44
2023-04-11T17:51:28.923Z,-3.48
2023-04-11T17:54:32.981Z,-3.55
2023-04-11T17:57:36.617Z,-3.63
2023-04-11T18:00:54.955Z,-3.67
2023-04-11T18:04:02.483Z,-3.65
2023-04-11T18:07:07.948Z,-3.80
2023-04-11T18:10:20.100Z,-3.81
2023-04-11T18:13:24.373Z,-3.94
2023-04-11T18:16:28.068Z,-3.97
2023-04-11T18:19:31.936Z,-3.82
2023-04-11T18:22:54.967Z,-3.68
2023-04-11T18:25:58.884Z,-3.75
2023-04-11T18:29:02.038Z,-3.89
2023-04-11T18:32:05.957Z,-4.05
2023-04-11T18:35:09.804Z,-4.17
2023-04-11T18:38:13.849Z,-4.31
2023-04-11T18:41:18.321Z,-4.37
2023-04-11T18:44:22.338Z,-4.48
2023-04-11T18:47:25.773Z,-4.53
2023-04-11T18:50:31.204Z,-4.60
2023-04-11T18:53:37.049Z,-4.73
2023-04-11T18:56:42.436Z,-4.75
2023-04-11T19:02:52.421Z,-5.07
2023-04-11T19:05:56.795Z,-5.16
2023-04-11T19:09:00.590Z,-5.21
2023-04-11T19:12:04.067Z,-5.29
2023-04-11T19:15:09.542Z,-5.33
2023-04-11T19:18:13.130Z,-5.40
2023-04-11T19:21:17.206Z,-5.52
2023-04-11T19:24:21.513Z,-5.59
2023-04-11T19:27:25.278Z,-5.54
2023-04-11T19:30:29.539Z,-5.58
2023-04-11T19:33:33.349Z,-5.73
2023-04-11T19:36:37.696Z,-5.75
2023-04-11T19:39:40.587Z,-5.78
2023-04-11T19:42:46.281Z,-5.80
2023-04-11T19:45:55.849Z,-5.85
2023-04-11T19:48:59.526Z,-5.92
2023-04-11T19:52:02.864Z,-5.95
2023-04-11T19:55:07.376Z,-5.95
2023-04-11T19:58:10.694Z,-5.95
2023-04-11T20:01:13.673Z,-6.02
2023-04-11T20:04:18.477Z,-6.10
2023-04-11T20:07:23.195Z,-6.10
2023-04-11T20:10:28.383Z,-6.06
2023-04-11T20:13:34.190Z,-6.01
2023-04-11T20:16:38.458Z,-5.95
2023-04-11T20:19:42.299Z,-5.95
2023-04-11T20:22:45.692Z,-5.96
2023-04-11T20:25:48.630Z,-6.03
2023-04-11T20:28:51.698Z,-6.09
2023-04-11T20:31:55.291Z,-6.19
2023-04-11T20:34:59.336Z,-6.35
2023-04-11T20:38:02.535Z,-6.43
2023-04-11T20:41:06.641Z,-6.41
2023-04-11T20:44:09.603Z,-6.29
2023-04-11T20:47:13.383Z,-6.24
2023-04-11T20:50:18.545Z,-6.41
2023-04-11T20:53:21.602Z,-6.60
2023-04-11T20:56:24.635Z,-6.74
2023-04-11T20:59:29.640Z,-6.89
2023-04-11T21:02:33.677Z,-6.96
2023-04-11T21:05:38.529Z,-7.07
2023-04-11T21:08:41.924Z,-7.13
2023-04-11T21:11:44.951Z,-7.07
2023-04-11T21:14:48.898Z,-7.03
2023-04-11T21:17:52.741Z,-7.00
2023-04-11T21:20:56.839Z,-6.92
2023-04-11T21:24:00.411Z,-6.80
2023-04-11T21:27:04.143Z,-6.62
2023-04-11T21:30:09.468Z,-6.59
2023-04-11T21:33:13.362Z,-6.61
2023-04-11T21:36:17.870Z,-6.84
2023-04-11T21:39:21.807Z,-6.81
2023-04-11T21:42:25.405Z,-6.84
2023-04-11T21:45:29.235Z,-6.80
2023-04-11T21:48:33.259Z,-6.85
2023-04-11T21:51:36.290Z,-6.94
2023-04-11T21:54:39.899Z,-6.90
2023-04-11T21:57:43.966Z,-6.74
2023-04-11T22:00:46.976Z,-6.75
2023-04-11T22:03:50.815Z,-6.70
2023-04-11T22:06:55.032Z,-6.72
2023-04-11T22:10:09.785Z,-6.77
2023-04-11T22:13:15.315Z,-6.87
2023-04-11T22:16:18.258Z,-6.84
2023-04-11T22:19:21.677Z,-6.70
2023-04-11T22:22:29.413Z,-6.61
2023-04-11T22:25:35.500Z,-6.71
2023-04-11T22:28:39.113Z,-6.86
2023-04-11T22:31:43.557Z,-6.78
2023-04-11T22:34:46.461Z,-6.85
2023-04-11T22:37:50.360Z,-6.88
2023-04-11T22:40:54.016Z,-6.66
2023-04-11T22:43:57.784Z,-6.47
2023-04-11T22:47:07.267Z,-6.50
2023-04-11T22:50:11.576Z,-6.45
2023-04-11T22:53:15.221Z,-6.29
2023-04-11T22:56:19.009Z,-6.23
2023-04-11T22:59:22.261Z,-6.45
2023-04-11T23:02:25.745Z,-6.50
2023-04-11T23:05:30.172Z,-6.21
2023-04-11T23:08:34.273Z,-5.90
2023-04-11T23:11:39.063Z,-5.73
2023-04-11T23:14:41.946Z,-5.61
2023-04-11T23:17:45.366Z,-5.00
2023-04-11T23:20:49.973Z,-1.81
2023-04-11T23:23:54.456Z,1.19
2023-04-11T23:26:57.631Z,2.93
2023-04-11T23:30:01.799Z,4.42
2023-04-11T23:33:08.820Z,5.48
2023-04-11T23:36:13.862Z,5.80
2023-04-11T23:39:17.547Z,6.22
2023-04-11T23:42:21.246Z,6.66
2023-04-11T23:45:24.837Z,7.11
2023-04-11T23:48:28.973Z,7.66
2023-04-11T23:51:32.759Z,7.90
2023-04-11T23:54:36.644Z,8.21
2023-04-11T23:57:39.754Z,8.40
